createdAt,value
2016-11-03T00:02:34.964Z,1006.39
2016-11-03T00:12:34.959Z,1006.5
2016-11-03T00:22:34.961Z,1006.44
2016-11-03T00:32:34.977Z,1006.73
2016-11-03T00:42:34.962Z,1006.76
2016-11-03T00:52:34.966Z,1006.86
2016-11-03T01:02:34.979Z,1006.96
2016-11-03T01:12:34.974Z,1006.97
2016-11-03T01:22:34.968Z,1007.07
2016-11-03T01:32:34.984Z,1007.03
2016-11-03T01:42:34.974Z,1007.03
2016-11-03T01:52:34.984Z,1007.15
2016-11-03T02:02:34.989Z,1007.14
2016-11-03T02:12:34.980Z,1007.17
2016-11-03T02:22:34.984Z,1007.13
2016-11-03T02:32:34.985Z,1007.24
2016-11-03T02:42:34.976Z,1007.21
2016-11-03T02:52:34.986Z,1007.17
2016-11-03T03:02:34.975Z,1007.26
2016-11-03T03:12:34.975Z,1007.36
2016-11-03T03:22:34.981Z,1007.27
2016-11-03T03:32:34.978Z,1007.3
2016-11-03T03:42:34.980Z,1007.39
2016-11-03T03:52:34.981Z,1007.57
2016-11-03T04:02:34.979Z,1007.66
2016-11-03T04:12:34.984Z,1007.76
2016-11-03T04:22:34.990Z,1007.69
2016-11-03T04:32:34.982Z,1007.59
2016-11-03T04:42:35.014Z,1007.65
2016-11-03T04:52:34.995Z,1007.55
2016-11-03T05:02:34.995Z,1007.66
2016-11-03T05:12:34.999Z,1007.6
2016-11-03T05:22:35.066Z,1007.65
2016-11-03T05:32:35.012Z,1007.83
2016-11-03T05:42:35.010Z,1007.85
2016-11-03T05:52:35.004Z,1008.12
2016-11-03T06:02:35.007Z,1008.1
2016-11-03T06:12:35.012Z,1008.09
2016-11-03T06:22:35.000Z,1008.12
2016-11-03T06:32:34.994Z,1008.07
2016-11-03T06:42:35.002Z,1008.19
2016-11-03T06:52:34.993Z,1008.23
2016-11-03T07:02:35.004Z,1008.31
2016-11-03T07:12:35.010Z,1008.44
2016-11-03T07:22:34.997Z,1008.5
2016-11-03T07:32:35.009Z,1008.51
2016-11-03T07:42:35.007Z,1008.47
2016-11-03T07:52:35.002Z,1008.58
2016-11-03T08:02:34.998Z,1008.67
2016-11-03T08:12:34.984Z,1008.59
2016-11-03T08:22:34.996Z,1008.59
2016-11-03T08:32:34.996Z,1008.72
2016-11-03T08:42:34.996Z,1008.81
2016-11-03T08:52:34.998Z,1008.92
2016-11-03T09:02:34.997Z,1008.93
2016-11-03T09:12:34.986Z,1009
2016-11-03T09:22:34.980Z,1008.89
2016-11-03T09:32:34.985Z,1008.76
2016-11-03T09:42:35.013Z,1008.84
2016-11-03T09:52:34.999Z,1008.75
2016-11-03T10:02:34.998Z,1008.73
2016-11-03T10:12:35.014Z,1008.73
2016-11-03T10:22:35.003Z,1008.83
2016-11-03T10:32:34.998Z,1008.52
2016-11-03T10:42:34.990Z,1008.54
2016-11-03T10:52:35.002Z,1008.54
2016-11-03T11:02:34.991Z,1008.49
2016-11-03T11:12:34.996Z,1008.36
2016-11-03T11:22:35.006Z,1008.27
2016-11-03T11:32:35.005Z,1008.27
2016-11-03T11:42:34.993Z,1008.15
2016-11-03T11:52:35.009Z,1008.28
2016-11-03T12:02:35.006Z,1007.98
2016-11-03T12:12:35.014Z,1007.98
2016-11-03T12:22:35.009Z,1007.93
2016-11-03T12:32:35.024Z,1007.79
2016-11-03T12:42:35.018Z,1007.93
2016-11-03T12:52:35.033Z,1007.86
2016-11-03T13:02:35.023Z,1007.74
2016-11-03T13:12:35.030Z,1007.77
2016-11-03T13:22:35.034Z,1007.69
2016-11-03T13:32:35.035Z,1007.86
2016-11-03T13:42:35.051Z,1007.87
2016-11-03T13:52:35.043Z,1007.81
2016-11-03T14:02:35.049Z,1007.88
2016-11-03T14:12:35.046Z,1007.78
2016-11-03T14:22:35.048Z,1007.61
2016-11-03T14:32:35.055Z,1007.65
2016-11-03T14:42:35.055Z,1007.64
2016-11-03T14:52:35.070Z,1007.64
2016-11-03T15:02:35.072Z,1007.64
2016-11-03T15:12:35.054Z,1007.65
2016-11-03T15:22:35.116Z,1007.53
2016-11-03T15:32:35.060Z,1007.75
2016-11-03T15:42:35.072Z,1007.53
2016-11-03T15:52:35.056Z,1007.65
2016-11-03T16:02:35.059Z,1007.67
2016-11-03T16:12:35.054Z,1007.51
2016-11-03T16:22:35.055Z,1007.48
2016-11-03T16:32:35.058Z,1007.45
2016-11-03T16:42:35.072Z,1007.42
2016-11-03T16:52:35.131Z,1007.54
2016-11-03T17:02:35.078Z,1007.36
2016-11-03T17:12:35.080Z,1007.28
2016-11-03T17:22:35.066Z,1007.3
2016-11-03T17:32:35.066Z,1007.4
2016-11-03T17:42:35.065Z,1007.36
2016-11-03T17:52:35.060Z,1007.36
2016-11-03T18:02:35.067Z,1007.21
2016-11-03T18:12:35.076Z,1007.23
2016-11-03T18:22:35.092Z,1007.21
2016-11-03T18:32:35.126Z,1007.23
2016-11-03T18:42:35.096Z,1007.04
2016-11-03T18:52:35.099Z,1007.08
2016-11-03T19:02:35.086Z,1007.17
2016-11-03T19:12:35.148Z,1007.04
2016-11-03T19:22:35.076Z,1006.93
2016-11-03T19:32:35.090Z,1007.06
2016-11-03T19:42:35.072Z,1006.96
2016-11-03T19:52:35.072Z,1006.86
2016-11-03T20:02:35.085Z,1006.96
2016-11-03T20:12:35.087Z,1006.91
2016-11-03T20:22:35.088Z,1007.11
2016-11-03T20:32:35.201Z,1006.87
2016-11-03T20:42:35.086Z,1006.95
2016-11-03T20:52:35.083Z,1006.88
2016-11-03T21:02:35.152Z,1006.8
2016-11-03T21:12:35.108Z,1006.7
2016-11-03T21:22:35.092Z,1006.69
2016-11-03T21:32:35.088Z,1006.7
2016-11-03T21:42:35.078Z,1006.45
2016-11-03T21:52:35.090Z,1006.44
2016-11-03T22:02:35.085Z,1006.35
2016-11-03T22:12:35.085Z,1006.24
2016-11-03T22:22:35.091Z,1006.31
2016-11-03T22:32:35.081Z,1006.15
2016-11-03T22:42:35.079Z,1006.1
2016-11-03T22:52:35.086Z,1005.95
2016-11-03T23:02:35.101Z,1005.72
2016-11-03T23:12:35.099Z,1005.61
2016-11-03T23:22:35.089Z,1005.65
2016-11-03T23:32:35.092Z,1005.58
2016-11-03T23:42:35.094Z,1005.42
2016-11-03T23:52:35.093Z,1005.29
